createdAt,value
2019-03-23T00:00:08.525Z,25.03
2019-03-23T00:02:36.952Z,23.70
2019-03-23T00:05:07.811Z,26.30
2019-03-23T00:07:36.268Z,26.13
2019-03-23T00:10:05.931Z,27.13
2019-03-23T00:12:34.373Z,23.87
2019-03-23T00:15:03.329Z,26.00
2019-03-23T00:17:31.775Z,24.00
2019-03-23T00:20:00.323Z,26.50
2019-03-23T00:22:28.816Z,24.33
2019-03-23T00:24:57.241Z,25.20
2019-03-23T00:27:25.700Z,27.13
2019-03-23T00:29:54.194Z,28.73
2019-03-23T00:32:22.746Z,26.80
2019-03-23T00:34:51.253Z,27.07
2019-03-23T00:37:19.685Z,27.47
2019-03-23T00:39:48.112Z,26.00
2019-03-23T00:42:16.572Z,28.00
2019-03-23T00:44:45.017Z,29.23
2019-03-23T00:47:13.428Z,28.40
2019-03-23T00:49:41.876Z,32.03
2019-03-23T00:52:10.292Z,28.00
2019-03-23T00:54:38.723Z,26.40
2019-03-23T00:57:07.163Z,30.30
2019-03-23T00:59:35.609Z,26.93
2019-03-23T01:02:04.039Z,28.33
2019-03-23T01:04:32.556Z,25.20
2019-03-23T01:07:01.049Z,28.83
2019-03-23T01:09:32.457Z,27.17
2019-03-23T01:12:00.873Z,28.97
2019-03-23T01:14:29.297Z,28.33
2019-03-23T01:16:57.790Z,28.50
2019-03-23T01:19:26.249Z,32.50
2019-03-23T01:21:54.673Z,27.43
2019-03-23T01:24:23.110Z,27.10
2019-03-23T01:26:51.522Z,28.27
2019-03-23T01:29:19.954Z,28.37
2019-03-23T01:31:48.443Z,28.60
2019-03-23T01:34:16.881Z,26.97
2019-03-23T01:36:45.384Z,29.07
2019-03-23T01:39:13.821Z,30.80
2019-03-23T01:41:42.249Z,30.40
2019-03-23T01:44:10.681Z,30.80
2019-03-23T01:46:39.104Z,31.60
2019-03-23T01:49:07.532Z,29.50
2019-03-23T01:51:35.976Z,27.27
2019-03-23T01:54:04.466Z,28.53
2019-03-23T01:56:32.980Z,27.87
2019-03-23T01:59:01.425Z,26.20
2019-03-23T02:01:30.030Z,26.80
2019-03-23T02:03:58.505Z,26.53
2019-03-23T02:06:27.272Z,30.03
2019-03-23T02:08:55.678Z,29.57
2019-03-23T02:11:24.550Z,30.87
2019-03-23T02:13:52.964Z,28.93
2019-03-23T02:16:21.388Z,30.37
2019-03-23T02:18:49.805Z,28.10
2019-03-23T02:21:18.318Z,30.80
2019-03-23T02:23:46.813Z,27.50
2019-03-23T02:26:15.266Z,27.87
2019-03-23T02:28:43.755Z,30.10
2019-03-23T02:31:12.201Z,27.90
2019-03-23T02:33:40.611Z,28.47
2019-03-23T02:36:09.091Z,29.63
2019-03-23T02:38:37.544Z,27.53
2019-03-23T02:41:05.962Z,27.03
2019-03-23T02:43:34.390Z,28.73
2019-03-23T02:46:02.826Z,27.70
2019-03-23T02:48:31.315Z,31.13
2019-03-23T02:50:59.740Z,28.07
2019-03-23T02:53:28.177Z,27.73
2019-03-23T02:55:56.594Z,28.07
2019-03-23T02:58:25.058Z,28.40
2019-03-23T03:00:53.521Z,25.83
2019-03-23T03:03:21.960Z,27.23
2019-03-23T03:05:50.367Z,26.57
2019-03-23T03:08:18.876Z,26.80
2019-03-23T03:10:47.304Z,29.80
2019-03-23T03:13:15.816Z,28.23
2019-03-23T03:15:44.236Z,25.90
2019-03-23T03:18:12.675Z,27.80
2019-03-23T03:20:41.117Z,25.50
2019-03-23T03:23:09.550Z,26.80
2019-03-23T03:25:37.968Z,27.90
2019-03-23T03:28:06.483Z,28.53
2019-03-23T03:30:34.962Z,26.67
2019-03-23T03:33:03.522Z,27.50
2019-03-23T03:35:31.957Z,27.57
2019-03-23T03:38:00.457Z,27.53
2019-03-23T03:40:28.965Z,27.13
2019-03-23T03:42:58.113Z,26.73
2019-03-23T03:45:27.693Z,24.77
2019-03-23T03:47:56.663Z,23.97
2019-03-23T03:50:25.264Z,25.93
2019-03-23T03:52:53.649Z,28.40
2019-03-23T03:55:22.088Z,27.17
2019-03-23T03:57:50.497Z,27.43
2019-03-23T04:00:19.181Z,27.73
2019-03-23T04:02:47.589Z,27.30
2019-03-23T04:05:16.114Z,28.10
2019-03-23T04:07:44.581Z,26.67
2019-03-23T04:10:13.165Z,28.00
2019-03-23T04:12:41.581Z,27.10
2019-03-23T04:15:10.767Z,26.40
2019-03-23T04:17:39.167Z,26.10
2019-03-23T04:20:08.952Z,29.70
2019-03-23T04:22:37.466Z,26.43
2019-03-23T04:25:08.117Z,28.23
2019-03-23T04:27:36.928Z,27.80
2019-03-23T04:30:10.571Z,28.43
2019-03-23T04:32:39.062Z,27.10
2019-03-23T04:35:08.036Z,27.70
2019-03-23T04:37:36.452Z,25.37
2019-03-23T04:40:07.552Z,24.67
2019-03-23T04:42:35.987Z,27.53
2019-03-23T04:45:07.036Z,26.40
2019-03-23T04:47:35.470Z,27.83
2019-03-23T04:50:09.084Z,26.90
2019-03-23T04:52:37.530Z,28.40
2019-03-23T04:55:13.567Z,26.57
2019-03-23T04:57:42.127Z,25.87
2019-03-23T05:00:16.105Z,23.83
2019-03-23T05:02:44.732Z,27.10
2019-03-23T05:05:13.291Z,23.77
2019-03-23T05:07:42.092Z,24.97
2019-03-23T05:10:11.945Z,26.57
2019-03-23T05:12:40.545Z,26.17
2019-03-23T05:15:09.398Z,25.13
2019-03-23T05:17:37.908Z,26.03
2019-03-23T05:20:08.256Z,26.60
2019-03-23T05:22:36.704Z,27.10
2019-03-23T05:25:06.268Z,28.83
2019-03-23T05:27:34.704Z,28.90
2019-03-23T05:30:04.457Z,27.73
2019-03-23T05:32:32.918Z,26.83
2019-03-23T05:35:01.337Z,29.83
2019-03-23T05:37:29.844Z,26.10
2019-03-23T05:39:58.284Z,29.17
2019-03-23T05:42:26.740Z,27.50
2019-03-23T05:44:55.329Z,29.30
2019-03-23T05:47:23.762Z,26.87
2019-03-23T05:49:52.568Z,24.10
2019-03-23T05:52:21.153Z,27.53
2019-03-23T05:54:49.641Z,26.30
2019-03-23T05:57:19.881Z,26.20
2019-03-23T05:59:48.455Z,25.30
2019-03-23T06:02:16.920Z,26.30
2019-03-23T06:04:45.410Z,26.50
2019-03-23T06:07:13.844Z,25.63
2019-03-23T06:09:42.316Z,25.97
2019-03-23T06:12:10.760Z,26.33
2019-03-23T06:14:39.277Z,22.60
2019-03-23T06:17:07.689Z,26.67
2019-03-23T06:19:36.133Z,25.60
2019-03-23T06:22:04.640Z,27.73
2019-03-23T06:24:33.080Z,24.57
2019-03-23T06:27:01.502Z,27.50
2019-03-23T06:29:29.937Z,26.83
2019-03-23T06:31:58.454Z,27.17
2019-03-23T06:34:26.902Z,25.07
2019-03-23T06:36:55.384Z,26.57
2019-03-23T06:39:23.909Z,24.87
2019-03-23T06:41:52.905Z,28.90
2019-03-23T06:44:21.358Z,26.93
2019-03-23T06:46:49.817Z,26.80
2019-03-23T06:49:18.253Z,28.23
2019-03-23T06:51:46.694Z,26.50
2019-03-23T06:54:15.147Z,29.63
2019-03-23T06:56:43.674Z,26.20
2019-03-23T06:59:12.092Z,25.33
2019-03-23T07:01:40.549Z,27.40
2019-03-23T07:04:09.067Z,25.43
2019-03-23T07:06:37.518Z,25.00
2019-03-23T07:09:15.746Z,26.97
2019-03-23T07:11:36.471Z,26.63
2019-03-23T07:14:05.024Z,30.67
2019-03-23T07:16:33.475Z,25.97
2019-03-23T07:19:02.062Z,27.40
2019-03-23T07:21:30.484Z,27.10
2019-03-23T07:23:58.951Z,24.07
2019-03-23T07:26:27.604Z,28.57
2019-03-23T07:28:56.024Z,24.27
2019-03-23T07:31:24.691Z,26.97
2019-03-23T07:33:53.942Z,26.00
2019-03-23T07:36:22.365Z,24.77
2019-03-23T07:38:50.895Z,24.47
2019-03-23T07:41:19.329Z,22.20
2019-03-23T07:43:47.774Z,22.73
2019-03-23T07:46:16.205Z,24.30
2019-03-23T07:48:44.679Z,22.77
2019-03-23T07:51:13.100Z,23.63
2019-03-23T07:53:41.534Z,23.10
2019-03-23T07:56:09.971Z,21.70
2019-03-23T07:58:38.423Z,23.03
2019-03-23T08:01:06.846Z,22.57
2019-03-23T08:03:35.377Z,21.87
2019-03-23T08:06:03.850Z,22.77
2019-03-23T08:08:32.445Z,23.17
2019-03-23T08:11:00.947Z,23.23
2019-03-23T08:13:29.457Z,24.03
2019-03-23T08:15:57.997Z,24.33
2019-03-23T08:18:26.448Z,21.90
2019-03-23T08:20:54.905Z,22.70
2019-03-23T08:23:23.432Z,22.80
2019-03-23T08:25:51.882Z,25.40
2019-03-23T08:28:20.311Z,22.40
2019-03-23T08:30:48.762Z,22.53
2019-03-23T08:33:18.235Z,21.60
2019-03-23T08:35:46.727Z,23.73
2019-03-23T08:38:15.227Z,22.30
2019-03-23T08:40:43.727Z,22.60
2019-03-23T08:43:12.318Z,22.10
2019-03-23T08:45:40.854Z,22.70
2019-03-23T08:48:09.288Z,23.30
2019-03-23T08:50:37.733Z,21.83
2019-03-23T08:53:06.169Z,23.17
2019-03-23T08:55:34.609Z,22.67
2019-03-23T08:58:03.165Z,24.97
2019-03-23T09:00:31.696Z,23.73
2019-03-23T09:03:00.196Z,21.73
2019-03-23T09:05:28.870Z,22.77
2019-03-23T09:07:57.372Z,23.00
2019-03-23T09:10:25.910Z,20.93
2019-03-23T09:12:54.422Z,22.80
2019-03-23T09:15:22.938Z,24.53
2019-03-23T09:17:51.346Z,23.33
2019-03-23T09:20:19.948Z,22.73
2019-03-23T09:22:48.480Z,25.03
2019-03-23T09:25:16.904Z,23.57
2019-03-23T09:27:45.355Z,24.60
2019-03-23T09:30:14.330Z,24.07
2019-03-23T09:32:42.834Z,24.13
2019-03-23T09:35:11.505Z,24.33
2019-03-23T09:37:39.976Z,27.60
2019-03-23T09:40:11.173Z,24.37
2019-03-23T09:42:38.904Z,27.40
2019-03-23T09:45:08.284Z,24.93
2019-03-23T09:47:37.059Z,27.70
2019-03-23T09:50:07.624Z,27.10
2019-03-23T09:52:36.071Z,29.30
2019-03-23T09:55:06.105Z,29.43
2019-03-23T09:57:34.586Z,27.87
2019-03-23T10:00:04.922Z,28.60
2019-03-23T10:02:33.386Z,31.50
2019-03-23T10:05:01.800Z,28.03
2019-03-23T10:07:30.247Z,30.10
2019-03-23T10:09:58.677Z,29.33
2019-03-23T10:12:27.156Z,31.53
2019-03-23T10:14:55.577Z,27.50
2019-03-23T10:17:24.012Z,30.30
2019-03-23T10:19:52.454Z,30.70
2019-03-23T10:22:21.021Z,30.90
2019-03-23T10:24:49.486Z,30.80
2019-03-23T10:27:17.916Z,33.23
2019-03-23T10:29:46.376Z,30.83
2019-03-23T10:32:14.798Z,31.97
2019-03-23T10:34:43.251Z,33.90
2019-03-23T10:37:11.690Z,31.40
2019-03-23T10:39:40.157Z,32.50
2019-03-23T10:42:08.629Z,33.43
2019-03-23T10:44:37.129Z,33.87
2019-03-23T10:47:05.715Z,33.07
2019-03-23T10:49:34.150Z,30.57
2019-03-23T10:52:02.588Z,30.57
2019-03-23T10:54:31.041Z,30.50
2019-03-23T10:56:59.545Z,33.93
2019-03-23T10:59:28.130Z,28.77
2019-03-23T11:01:56.626Z,28.83
2019-03-23T11:04:25.138Z,27.17
2019-03-23T11:06:53.552Z,31.70
2019-03-23T11:09:22.061Z,29.80
2019-03-23T11:11:50.500Z,31.00
2019-03-23T11:14:18.989Z,30.00
2019-03-23T11:16:47.408Z,30.93
2019-03-23T11:19:15.853Z,32.73
2019-03-23T11:21:44.333Z,26.10
2019-03-23T11:24:12.774Z,28.57
2019-03-23T11:26:41.301Z,30.60
2019-03-23T11:29:09.723Z,31.23
2019-03-23T11:31:38.192Z,32.50
2019-03-23T11:34:06.685Z,36.10
2019-03-23T11:36:35.190Z,36.63
2019-03-23T11:39:05.184Z,33.33
2019-03-23T11:41:33.642Z,33.07
2019-03-23T11:44:02.187Z,31.00
2019-03-23T11:46:30.636Z,30.73
2019-03-23T11:48:59.060Z,31.20
2019-03-23T11:51:27.574Z,30.70
2019-03-23T11:53:56.025Z,32.10
2019-03-23T11:56:24.490Z,30.20
2019-03-23T11:58:53.979Z,31.13
2019-03-23T12:01:22.626Z,29.83
2019-03-23T12:03:51.089Z,28.87
2019-03-23T12:06:19.530Z,30.67
2019-03-23T12:08:47.978Z,31.93
2019-03-23T12:11:16.445Z,30.27
2019-03-23T12:13:44.860Z,30.97
2019-03-23T12:16:13.285Z,31.63
2019-03-23T12:18:41.763Z,31.17
2019-03-23T12:21:10.215Z,33.87
2019-03-23T12:23:38.775Z,28.97
2019-03-23T12:26:07.211Z,30.80
2019-03-23T12:28:35.713Z,30.97
2019-03-23T12:31:04.296Z,31.03
2019-03-23T12:33:32.763Z,29.73
2019-03-23T12:36:01.206Z,29.70
2019-03-23T12:38:29.638Z,31.00
2019-03-23T12:40:58.095Z,31.73
2019-03-23T12:43:26.597Z,28.73
2019-03-23T12:45:55.025Z,30.33
2019-03-23T12:48:23.483Z,28.57
2019-03-23T12:50:51.974Z,29.30
2019-03-23T12:53:20.410Z,28.67
2019-03-23T12:55:48.993Z,30.70
2019-03-23T12:58:17.408Z,30.33
2019-03-23T13:00:45.860Z,30.87
2019-03-23T13:03:14.287Z,31.30
2019-03-23T13:05:42.790Z,31.50
2019-03-23T13:08:11.268Z,28.30
2019-03-23T13:10:39.711Z,31.90
2019-03-23T13:13:08.132Z,29.30
2019-03-23T13:15:36.571Z,30.80
2019-03-23T13:18:05.081Z,28.27
2019-03-23T13:23:01.957Z,30.47
2019-03-23T13:25:30.503Z,27.53
2019-03-23T13:27:59.016Z,28.30
2019-03-23T13:30:27.525Z,30.67
2019-03-23T13:32:55.965Z,30.53
2019-03-23T13:35:24.419Z,28.33
2019-03-23T13:37:54.503Z,28.70
2019-03-23T13:40:23.167Z,30.63
2019-03-23T13:42:51.609Z,29.07
2019-03-23T13:45:20.080Z,28.23
2019-03-23T13:47:48.506Z,29.27
2019-03-23T13:50:20.025Z,26.57
2019-03-23T13:52:57.668Z,26.70
2019-03-23T13:55:33.939Z,26.70
2019-03-23T13:58:12.711Z,31.27
2019-03-23T14:00:41.447Z,33.97
2019-03-23T14:03:10.138Z,30.70
2019-03-23T14:05:38.596Z,28.50
2019-03-23T14:08:07.133Z,28.80
2019-03-23T14:10:35.577Z,34.80
2019-03-23T14:13:04.097Z,31.57
2019-03-23T14:15:32.586Z,31.10
2019-03-23T14:18:01.098Z,34.47
2019-03-23T14:20:29.545Z,30.03
2019-03-23T14:23:02.680Z,29.57
2019-03-23T14:25:28.144Z,31.47
2019-03-23T14:27:56.608Z,30.40
2019-03-23T14:30:25.139Z,31.20
2019-03-23T14:32:53.654Z,30.03
2019-03-23T14:35:22.149Z,31.20
2019-03-23T14:37:50.621Z,33.63
2019-03-23T14:40:19.026Z,28.23
2019-03-23T14:42:47.552Z,29.97
2019-03-23T14:45:15.963Z,31.23
2019-03-23T14:47:44.405Z,30.40
2019-03-23T14:50:12.985Z,28.87
2019-03-23T14:52:41.439Z,29.90
2019-03-23T14:55:10.185Z,31.73
2019-03-23T14:57:40.460Z,29.10
2019-03-23T15:00:10.238Z,31.17
2019-03-23T15:02:38.765Z,32.33
2019-03-23T15:05:08.114Z,30.23
2019-03-23T15:07:36.613Z,31.37
2019-03-23T15:10:09.396Z,28.53
2019-03-23T15:12:37.804Z,30.53
2019-03-23T15:15:07.639Z,28.40
2019-03-23T15:17:36.069Z,29.00
2019-03-23T15:20:05.942Z,31.23
2019-03-23T15:22:34.368Z,28.67
2019-03-23T15:25:02.976Z,30.27
2019-03-23T15:27:31.430Z,28.10
2019-03-23T15:29:59.963Z,29.40
2019-03-23T15:32:28.404Z,30.43
2019-03-23T15:34:56.880Z,31.43
2019-03-23T15:37:25.294Z,28.23
2019-03-23T15:39:53.760Z,33.67
2019-03-23T15:42:24.931Z,27.00
2019-03-23T15:44:52.321Z,30.10
2019-03-23T15:47:20.840Z,30.77
2019-03-23T15:49:49.261Z,32.00
2019-03-23T15:52:17.724Z,29.93
2019-03-23T15:54:46.131Z,28.80
2019-03-23T15:57:15.741Z,30.53
2019-03-23T15:59:44.166Z,33.70
2019-03-23T16:02:12.752Z,33.13
2019-03-23T16:04:41.200Z,32.10
2019-03-23T16:07:09.628Z,30.83
2019-03-23T16:09:38.069Z,30.27
2019-03-23T16:12:06.531Z,27.40
2019-03-23T16:14:34.929Z,29.63
2019-03-23T16:17:03.412Z,30.80
2019-03-23T16:19:31.833Z,31.07
2019-03-23T16:22:00.308Z,30.30
2019-03-23T16:24:28.735Z,30.30
2019-03-23T16:26:57.178Z,29.93
2019-03-23T16:29:25.594Z,30.07
2019-03-23T16:31:54.077Z,29.40
2019-03-23T16:34:22.497Z,31.20
2019-03-23T16:36:50.953Z,35.37
2019-03-23T16:39:19.380Z,30.00
2019-03-23T16:41:47.890Z,43.17
2019-03-23T16:44:16.452Z,31.97
2019-03-23T16:46:44.897Z,34.63
2019-03-23T16:49:13.363Z,32.13
2019-03-23T16:51:41.797Z,30.93
2019-03-23T16:54:10.307Z,31.30
2019-03-23T16:56:38.729Z,29.87
2019-03-23T16:59:07.194Z,31.77
2019-03-23T17:01:35.627Z,33.60
2019-03-23T17:04:04.221Z,32.27
2019-03-23T17:06:32.652Z,33.23
2019-03-23T17:09:01.147Z,33.37
2019-03-23T17:11:29.619Z,35.27
2019-03-23T17:13:58.136Z,31.30
2019-03-23T17:16:26.561Z,34.10
2019-03-23T17:18:55.012Z,31.43
2019-03-23T17:21:23.427Z,30.80
2019-03-23T17:23:51.861Z,31.07
2019-03-23T17:26:20.324Z,32.80
2019-03-23T17:28:48.751Z,33.23
2019-03-23T17:31:17.268Z,32.13
2019-03-23T17:33:45.721Z,29.40
2019-03-23T17:36:14.211Z,29.87
2019-03-23T17:38:42.662Z,28.97
2019-03-23T17:41:11.109Z,27.83
2019-03-23T17:43:40.890Z,32.60
2019-03-23T17:46:09.475Z,31.13
2019-03-23T17:48:37.906Z,34.47
2019-03-23T17:51:07.105Z,31.90
2019-03-23T17:53:35.842Z,35.73
2019-03-23T17:56:06.327Z,34.83
2019-03-23T17:58:34.589Z,37.00
2019-03-23T18:01:03.502Z,35.03
2019-03-23T18:03:31.958Z,39.03
2019-03-23T18:06:00.427Z,38.30
2019-03-23T18:08:28.946Z,46.00
2019-03-23T18:10:57.482Z,45.30
2019-03-23T18:13:26.017Z,41.63
2019-03-23T18:15:54.480Z,40.67
2019-03-23T18:18:24.455Z,40.13
2019-03-23T18:20:52.913Z,41.03
2019-03-23T18:23:21.429Z,36.33
2019-03-23T18:25:49.941Z,39.27
2019-03-23T18:28:18.388Z,39.10
2019-03-23T18:30:46.905Z,44.60
2019-03-23T18:33:15.409Z,42.33
2019-03-23T18:35:44.011Z,39.30
2019-03-23T18:38:12.519Z,38.30
2019-03-23T18:40:41.106Z,33.03
2019-03-23T18:43:09.688Z,38.47
2019-03-23T18:45:38.215Z,40.37
2019-03-23T18:48:06.810Z,36.07
2019-03-23T18:50:35.266Z,40.40
2019-03-23T18:53:03.873Z,32.03
2019-03-23T18:55:32.438Z,37.43
2019-03-23T18:58:00.924Z,41.90
2019-03-23T19:00:36.925Z,35.23
2019-03-23T19:03:05.463Z,37.90
2019-03-23T19:05:33.886Z,37.07
2019-03-23T19:08:02.410Z,38.90
2019-03-23T19:10:30.835Z,42.20
2019-03-23T19:12:59.460Z,38.00
2019-03-23T19:15:27.901Z,41.87
2019-03-23T19:17:56.365Z,38.17
2019-03-23T19:20:24.806Z,43.00
2019-03-23T19:22:53.268Z,40.17
2019-03-23T19:25:21.789Z,39.17
2019-03-23T19:27:50.326Z,40.47
2019-03-23T19:30:18.878Z,38.73
2019-03-23T19:32:47.334Z,35.97
2019-03-23T19:35:15.813Z,36.80
2019-03-23T19:37:44.418Z,41.60
2019-03-23T19:40:13.068Z,37.40
2019-03-23T19:42:41.505Z,38.63
2019-03-23T19:45:10.158Z,43.10
2019-03-23T19:47:38.711Z,40.07
2019-03-23T19:50:08.251Z,39.50
2019-03-23T19:52:36.727Z,37.63
2019-03-23T19:55:07.426Z,37.67
2019-03-23T19:57:35.851Z,42.30
2019-03-23T20:00:09.628Z,47.23
2019-03-23T20:02:38.262Z,40.83
2019-03-23T20:05:07.043Z,43.80
2019-03-23T20:07:35.853Z,41.03
2019-03-23T20:10:08.583Z,41.53
2019-03-23T20:12:37.157Z,47.30
2019-03-23T20:15:08.363Z,40.87
2019-03-23T20:17:36.926Z,46.33
2019-03-23T20:20:07.407Z,44.57
2019-03-23T20:22:35.884Z,46.00
2019-03-23T20:25:06.006Z,45.63
2019-03-23T20:27:34.473Z,42.03
2019-03-23T20:30:04.051Z,39.57
2019-03-23T20:32:32.547Z,41.03
2019-03-23T20:35:00.999Z,38.30
2019-03-23T20:37:29.581Z,36.17
2019-03-23T20:39:58.150Z,41.80
2019-03-23T20:42:26.776Z,42.10
2019-03-23T20:44:55.217Z,41.37
2019-03-23T20:47:23.659Z,41.90
2019-03-23T20:49:53.370Z,43.20
2019-03-23T20:52:21.881Z,44.10
2019-03-23T20:54:50.316Z,43.20
2019-03-23T20:57:23.975Z,46.60
2019-03-23T20:59:48.934Z,44.93
2019-03-23T21:02:17.375Z,45.33
2019-03-23T21:04:45.826Z,43.10
2019-03-23T21:07:14.299Z,40.90
2019-03-23T21:09:42.832Z,47.03
2019-03-23T21:12:11.418Z,44.33
2019-03-23T21:14:39.965Z,42.67
2019-03-23T21:17:08.427Z,42.40
2019-03-23T21:19:36.930Z,44.73
2019-03-23T21:22:05.595Z,47.80
2019-03-23T21:24:34.161Z,43.33
2019-03-23T21:27:02.637Z,49.20
2019-03-23T21:29:31.123Z,39.50
2019-03-23T21:31:59.554Z,46.10
2019-03-23T21:34:27.988Z,46.83
2019-03-23T21:36:56.508Z,43.20
2019-03-23T21:39:24.952Z,44.93
2019-03-23T21:41:53.396Z,45.90
2019-03-23T21:44:30.650Z,45.87
2019-03-23T21:46:52.009Z,45.63
2019-03-23T21:49:20.434Z,49.80
2019-03-23T21:51:48.968Z,49.90
2019-03-23T21:54:17.420Z,49.20
2019-03-23T21:56:45.954Z,50.77
2019-03-23T21:59:14.398Z,53.43
2019-03-23T22:01:42.816Z,47.73
2019-03-23T22:04:11.278Z,50.90
2019-03-23T22:06:39.709Z,53.33
2019-03-23T22:09:08.252Z,51.47
2019-03-23T22:11:36.814Z,54.40
2019-03-23T22:14:05.365Z,48.07
2019-03-23T22:16:33.942Z,46.17
2019-03-23T22:19:02.467Z,51.87
2019-03-23T22:21:30.950Z,46.80
2019-03-23T22:23:59.437Z,46.87
2019-03-23T22:26:27.913Z,54.53
2019-03-23T22:28:56.368Z,50.20
2019-03-23T22:31:24.790Z,48.90
2019-03-23T22:33:53.241Z,51.33
2019-03-23T22:36:21.741Z,49.63
2019-03-23T22:38:50.206Z,56.87
2019-03-23T22:41:18.634Z,52.90
2019-03-23T22:43:47.124Z,55.93
2019-03-23T22:46:15.561Z,58.20
2019-03-23T22:48:44.050Z,52.53
2019-03-23T22:51:12.543Z,54.60
2019-03-23T22:53:40.963Z,52.77
2019-03-23T22:56:09.399Z,54.73
2019-03-23T22:58:37.837Z,59.50
2019-03-23T23:01:06.428Z,64.67
2019-03-23T23:03:34.939Z,62.20
2019-03-23T23:06:03.442Z,58.87
2019-03-23T23:08:31.902Z,60.00
2019-03-23T23:11:00.395Z,57.70
2019-03-23T23:13:28.814Z,69.47
2019-03-23T23:15:57.353Z,64.93
2019-03-23T23:18:25.773Z,68.27
2019-03-23T23:20:54.236Z,67.80
2019-03-23T23:23:22.681Z,65.73
2019-03-23T23:25:51.133Z,71.23
2019-03-23T23:28:19.574Z,68.53
2019-03-23T23:30:48.040Z,70.70
2019-03-23T23:33:16.448Z,72.30
2019-03-23T23:35:44.892Z,74.87
2019-03-23T23:38:13.358Z,67.53
2019-03-23T23:40:41.803Z,73.17
2019-03-23T23:43:10.225Z,74.47
2019-03-23T23:45:38.769Z,71.63
2019-03-23T23:48:07.270Z,75.43
2019-03-23T23:50:35.700Z,70.80
2019-03-23T23:53:04.228Z,64.63
2019-03-23T23:55:32.752Z,64.33
2019-03-23T23:58:01.254Z,70.00
